EYP weather

El Yopal Airport
El Yopal, Casanare Department, Colombia

Public forecast

Using degrees Celsius for public forecast. Weather courtesy of forecast.io.

Current aviation weather report (METAR) for El Yopal Airport

Report is more than 6 hours old.

Retrieved 2019/09/15 23:00 UTC (1 month ago):

SKYP 152300Z 04007KT 9999 SCT030 28/25 A2983

Closest aviation forecast (TAF) to El Yopal Airport

Closest forecast is El Dorado International Airport, 111.8 nm (207.0 km) WSW. Retrieved 2019/10/21 06:30 UTC (9 minutes ago):

TAF SKBO 210430Z 2106/2206 03003KT 9999 FEW018 SCT090 TEMPO 2106/2108 VCSH SCT015 TEMPO 2109/2113 5000 VCFG SCT012 BECMG 2115/2117 27008KT TEMPO 2119/2124 5000 RA SCT017CB TX20/2118Z TN07/2111Z